sensor_id;sensor_type;location;lat;lon;timestamp;P1;durP1;ratioP1;P2;durP2;ratioP2
3767;SDS011;1899;49.966;7.106;2023-02-28T05:02:36;7.60;;;6.10;;
3767;SDS011;1899;49.966;7.106;2023-02-28T05:05:02;10.27;;;7.40;;
3767;SDS011;1899;49.966;7.106;2023-02-28T05:07:27;9.63;;;7.33;;
3767;SDS011;1899;49.966;7.106;2023-02-28T05:09:52;9.13;;;7.37;;
3767;SDS011;1899;49.966;7.106;2023-02-28T05:12:18;9.70;;;7.60;;
3767;SDS011;1899;49.966;7.106;2023-02-28T05:14:43;9.83;;;7.10;;
3767;SDS011;1899;49.966;7.106;2023-02-28T05:17:09;8.63;;;7.20;;
3767;SDS011;1899;49.966;7.106;2023-02-28T05:19:34;7.93;;;7.13;;
3767;SDS011;1899;49.966;7.106;2023-02-28T05:21:59;10.20;;;7.40;;
3767;SDS011;1899;49.966;7.106;2023-02-28T05:24:25;9.30;;;7.30;;
3767;SDS011;1899;49.966;7.106;2023-02-28T05:26:51;8.40;;;6.17;;
3767;SDS011;1899;49.966;7.106;2023-02-28T05:29:17;9.73;;;7.75;;
3767;SDS011;1899;49.966;7.106;2023-02-28T05:31:43;8.43;;;7.37;;
3767;SDS011;1899;49.966;7.106;2023-02-28T05:34:08;8.23;;;5.90;;
3767;SDS011;1899;49.966;7.106;2023-02-28T05:36:36;7.43;;;6.63;;
3767;SDS011;1899;49.966;7.106;2023-02-28T05:39:02;9.48;;;7.55;;
3767;SDS011;1899;49.966;7.106;2023-02-28T05:41:28;8.95;;;6.85;;
3767;SDS011;1899;49.966;7.106;2023-02-28T05:43:53;7.50;;;6.70;;
3767;SDS011;1899;49.966;7.106;2023-02-28T05:46:18;8.70;;;7.20;;
3767;SDS011;1899;49.966;7.106;2023-02-28T05:48:45;8.70;;;7.00;;
3767;SDS011;1899;49.966;7.106;2023-02-28T05:51:11;8.27;;;6.93;;
3767;SDS011;1899;49.966;7.106;2023-02-28T05:53:36;8.87;;;7.60;;
3767;SDS011;1899;49.966;7.106;2023-02-28T05:56:01;9.98;;;7.40;;
3767;SDS011;1899;49.966;7.106;2023-02-28T05:58:27;9.40;;;7.72;;
3767;SDS011;1899;49.966;7.106;2023-02-28T06:00:56;11.07;;;8.45;;
3767;SDS011;1899;49.966;7.106;2023-02-28T06:03:21;9.55;;;7.70;;
3767;SDS011;1899;49.966;7.106;2023-02-28T06:05:46;11.30;;;8.40;;
3767;SDS011;1899;49.966;7.106;2023-02-28T06:08:12;10.05;;;8.02;;
3767;SDS011;1899;49.966;7.106;2023-02-28T06:10:37;10.27;;;7.95;;
3767;SDS011;1899;49.966;7.106;2023-02-28T06:13:03;9.70;;;7.93;;
3767;SDS011;1899;49.966;7.106;2023-02-28T06:15:28;8.70;;;7.50;;
3767;SDS011;1899;49.966;7.106;2023-02-28T06:17:54;11.07;;;7.67;;
3767;SDS011;1899;49.966;7.106;2023-02-28T06:20:21;11.18;;;8.23;;
3767;SDS011;1899;49.966;7.106;2023-02-28T06:22:47;10.70;;;8.48;;
3767;SDS011;1899;49.966;7.106;2023-02-28T06:25:12;8.87;;;7.60;;
3767;SDS011;1899;49.966;7.106;2023-02-28T06:27:37;9.00;;;7.90;;
3767;SDS011;1899;49.966;7.106;2023-02-28T06:30:03;9.63;;;8.17;;
3767;SDS011;1899;49.966;7.106;2023-02-28T06:32:28;8.00;;;7.20;;
3767;SDS011;1899;49.966;7.106;2023-02-28T06:34:53;10.00;;;7.37;;
3767;SDS011;1899;49.966;7.106;2023-02-28T06:37:19;10.00;;;7.93;;
3767;SDS011;1899;49.966;7.106;2023-02-28T06:39:44;8.93;;;7.20;;
3767;SDS011;1899;49.966;7.106;2023-02-28T06:42:09;9.13;;;7.80;;
3767;SDS011;1899;49.966;7.106;2023-02-28T06:44:35;7.73;;;6.77;;
3767;SDS011;1899;49.966;7.106;2023-02-28T06:47:04;9.67;;;7.30;;
3767;SDS011;1899;49.966;7.106;2023-02-28T06:49:30;9.95;;;7.70;;
3767;SDS011;1899;49.966;7.106;2023-02-28T06:51:55;8.60;;;7.50;;
3767;SDS011;1899;49.966;7.106;2023-02-28T06:54:20;8.30;;;6.88;;
3767;SDS011;1899;49.966;7.106;2023-02-28T06:56:46;9.50;;;7.00;;
3767;SDS011;1899;49.966;7.106;2023-02-28T06:59:12;8.30;;;6.95;;
3767;SDS011;1899;49.966;7.106;2023-02-28T07:01:37;10.80;;;8.17;;
3767;SDS011;1899;49.966;7.106;2023-02-28T07:04:04;9.35;;;8.02;;
3767;SDS011;1899;49.966;7.106;2023-02-28T07:06:30;8.27;;;7.20;;
3767;SDS011;1899;49.966;7.106;2023-02-28T07:08:56;9.10;;;7.50;;
3767;SDS011;1899;49.966;7.106;2023-02-28T07:11:22;8.70;;;7.60;;
3767;SDS011;1899;49.966;7.106;2023-02-28T07:13:48;8.40;;;7.60;;
3767;SDS011;1899;49.966;7.106;2023-02-28T07:16:13;11.50;;;7.60;;
3767;SDS011;1899;49.966;7.106;2023-02-28T07:18:38;9.17;;;7.80;;
3767;SDS011;1899;49.966;7.106;2023-02-28T07:21:04;8.43;;;7.40;;
3767;SDS011;1899;49.966;7.106;2023-02-28T07:23:29;10.50;;;7.63;;
3767;SDS011;1899;49.966;7.106;2023-02-28T07:25:55;9.07;;;7.40;;
3767;SDS011;1899;49.966;7.106;2023-02-28T07:28:22;9.00;;;7.70;;
3767;SDS011;1899;49.966;7.106;2023-02-28T07:30:47;10.07;;;7.53;;
3767;SDS011;1899;49.966;7.106;2023-02-28T07:33:13;9.37;;;7.30;;
3767;SDS011;1899;49.966;7.106;2023-02-28T07:35:38;8.50;;;7.60;;
3767;SDS011;1899;49.966;7.106;2023-02-28T07:38:04;8.27;;;7.30;;
3767;SDS011;1899;49.966;7.106;2023-02-28T07:40:30;8.48;;;7.68;;
3767;SDS011;1899;49.966;7.106;2023-02-28T07:42:55;8.88;;;7.50;;
3767;SDS011;1899;49.966;7.106;2023-02-28T07:45:21;8.45;;;7.55;;
3767;SDS011;1899;49.966;7.106;2023-02-28T07:47:46;9.60;;;7.80;;
3767;SDS011;1899;49.966;7.106;2023-02-28T07:50:13;9.20;;;7.35;;
3767;SDS011;1899;49.966;7.106;2023-02-28T07:52:38;9.05;;;7.70;;
3767;SDS011;1899;49.966;7.106;2023-02-28T07:55:05;8.27;;;7.20;;
3767;SDS011;1899;49.966;7.106;2023-02-28T07:57:30;9.57;;;7.82;;
3767;SDS011;1899;49.966;7.106;2023-02-28T07:59:56;8.40;;;7.50;;
3767;SDS011;1899;49.966;7.106;2023-02-28T08:02:21;8.30;;;7.30;;
3767;SDS011;1899;49.966;7.106;2023-02-28T08:04:46;8.13;;;7.17;;
3767;SDS011;1899;49.966;7.106;2023-02-28T08:07:13;8.45;;;7.15;;
3767;SDS011;1899;49.966;7.106;2023-02-28T08:09:41;9.35;;;7.88;;
3767;SDS011;1899;49.966;7.106;2023-02-28T08:12:07;7.57;;;6.78;;
3767;SDS011;1899;49.966;7.106;2023-02-28T08:14:33;7.55;;;6.50;;
3767;SDS011;1899;49.966;7.106;2023-02-28T08:16:58;9.67;;;7.17;;
3767;SDS011;1899;49.966;7.106;2023-02-28T08:19:23;9.33;;;7.10;;
3767;SDS011;1899;49.966;7.106;2023-02-28T08:21:48;7.87;;;7.07;;
3767;SDS011;1899;49.966;7.106;2023-02-28T08:24:14;8.90;;;7.50;;
3767;SDS011;1899;49.966;7.106;2023-02-28T08:26:39;6.55;;;5.85;;
3767;SDS011;1899;49.966;7.106;2023-02-28T08:29:04;6.50;;;5.73;;
3767;SDS011;1899;49.966;7.106;2023-02-28T08:31:29;8.37;;;6.83;;
3767;SDS011;1899;49.966;7.106;2023-02-28T08:33:55;7.80;;;6.17;;
3767;SDS011;1899;49.966;7.106;2023-02-28T08:36:23;7.60;;;6.20;;
3767;SDS011;1899;49.966;7.106;2023-02-28T08:38:49;7.07;;;6.38;;
3767;SDS011;1899;49.966;7.106;2023-02-28T08:41:14;7.65;;;6.05;;
3767;SDS011;1899;49.966;7.106;2023-02-28T08:43:39;6.80;;;5.90;;
3767;SDS011;1899;49.966;7.106;2023-02-28T08:46:05;7.90;;;6.53;;
3767;SDS011;1899;49.966;7.106;2023-02-28T08:48:32;7.40;;;6.37;;
3767;SDS011;1899;49.966;7.106;2023-02-28T08:50:58;8.20;;;5.40;;
3767;SDS011;1899;49.966;7.106;2023-02-28T08:53:24;6.18;;;5.28;;
3767;SDS011;1899;49.966;7.106;2023-02-28T08:55:56;6.07;;;5.47;;
3767;SDS011;1899;49.966;7.106;2023-02-28T08:58:21;6.40;;;5.25;;
3767;SDS011;1899;49.966;7.106;2023-02-28T09:00:46;7.13;;;5.47;;
3767;SDS011;1899;49.966;7.106;2023-02-28T09:03:11;5.80;;;5.20;;
3767;SDS011;1899;49.966;7.106;2023-02-28T09:05:37;9.85;;;5.65;;
3767;SDS011;1899;49.966;7.106;2023-02-28T09:08:02;6.53;;;5.40;;
3767;SDS011;1899;49.966;7.106;2023-02-28T09:10:27;6.70;;;4.90;;
3767;SDS011;1899;49.966;7.106;2023-02-28T09:12:52;7.03;;;5.50;;
3767;SDS011;1899;49.966;7.106;2023-02-28T09:15:18;8.20;;;5.03;;
3767;SDS011;1899;49.966;7.106;2023-02-28T09:17:43;5.80;;;4.90;;
3767;SDS011;1899;49.966;7.106;2023-02-28T09:20:08;6.03;;;5.00;;
3767;SDS011;1899;49.966;7.106;2023-02-28T09:22:34;6.20;;;5.07;;
3767;SDS011;1899;49.966;7.106;2023-02-28T09:24:59;8.50;;;5.20;;
3767;SDS011;1899;49.966;7.106;2023-02-28T09:27:24;5.20;;;4.70;;
3767;SDS011;1899;49.966;7.106;2023-02-28T09:29:49;7.77;;;4.80;;
3767;SDS011;1899;49.966;7.106;2023-02-28T09:32:15;5.03;;;4.53;;
3767;SDS011;1899;49.966;7.106;2023-02-28T09:34:40;5.50;;;4.40;;
3767;SDS011;1899;49.966;7.106;2023-02-28T09:37:05;6.00;;;4.83;;
3767;SDS011;1899;49.966;7.106;2023-02-28T09:39:31;8.00;;;4.90;;
3767;SDS011;1899;49.966;7.106;2023-02-28T09:41:56;5.35;;;4.35;;
3767;SDS011;1899;49.966;7.106;2023-02-28T09:46:48;6.23;;;4.83;;
3767;SDS011;1899;49.966;7.106;2023-02-28T09:49:17;5.82;;;4.70;;
3767;SDS011;1899;49.966;7.106;2023-02-28T09:51:51;6.00;;;5.00;;
3767;SDS011;1899;49.966;7.106;2023-02-28T09:54:23;7.00;;;4.60;;
3767;SDS011;1899;49.966;7.106;2023-02-28T09:57:14;6.75;;;4.80;;
3767;SDS011;1899;49.966;7.106;2023-02-28T10:02:29;4.70;;;4.30;;
3767;SDS011;1899;49.966;7.106;2023-02-28T10:04:58;6.28;;;4.47;;
3767;SDS011;1899;49.966;7.106;2023-02-28T10:09:53;5.13;;;3.70;;
3767;SDS011;1899;49.966;7.106;2023-02-28T10:12:20;4.50;;;3.85;;
3767;SDS011;1899;49.966;7.106;2023-02-28T10:14:47;7.03;;;4.20;;
3767;SDS011;1899;49.966;7.106;2023-02-28T10:17:24;5.07;;;3.90;;
3767;SDS011;1899;49.966;7.106;2023-02-28T10:20:01;6.33;;;4.20;;
3767;SDS011;1899;49.966;7.106;2023-02-28T10:25:01;4.28;;;3.80;;
3767;SDS011;1899;49.966;7.106;2023-02-28T10:27:30;6.40;;;3.77;;
3767;SDS011;1899;49.966;7.106;2023-02-28T10:29:57;5.10;;;3.80;;
3767;SDS011;1899;49.966;7.106;2023-02-28T10:32:24;3.90;;;3.40;;
3767;SDS011;1899;49.966;7.106;2023-02-28T10:34:55;4.40;;;3.58;;
3767;SDS011;1899;49.966;7.106;2023-02-28T10:37:21;4.60;;;3.80;;
3767;SDS011;1899;49.966;7.106;2023-02-28T10:39:47;4.73;;;3.83;;
3767;SDS011;1899;49.966;7.106;2023-02-28T10:42:19;4.60;;;3.90;;
3767;SDS011;1899;49.966;7.106;2023-02-28T10:44:45;5.18;;;4.00;;
3767;SDS011;1899;49.966;7.106;2023-02-28T10:47:17;5.10;;;4.28;;
3767;SDS011;1899;49.966;7.106;2023-02-28T10:49:48;5.22;;;3.70;;
3767;SDS011;1899;49.966;7.106;2023-02-28T10:52:14;5.30;;;4.00;;
3767;SDS011;1899;49.966;7.106;2023-02-28T10:55:13;5.15;;;3.97;;
3767;SDS011;1899;49.966;7.106;2023-02-28T10:57:39;5.45;;;4.65;;
3767;SDS011;1899;49.966;7.106;2023-02-28T11:00:15;4.97;;;4.47;;
3767;SDS011;1899;49.966;7.106;2023-02-28T11:02:41;4.95;;;4.45;;
3767;SDS011;1899;49.966;7.106;2023-02-28T11:05:42;4.63;;;4.20;;
3767;SDS011;1899;49.966;7.106;2023-02-28T11:08:10;6.05;;;5.00;;
3767;SDS011;1899;49.966;7.106;2023-02-28T11:10:37;5.05;;;4.63;;
3767;SDS011;1899;49.966;7.106;2023-02-28T11:13:03;4.97;;;4.23;;
3767;SDS011;1899;49.966;7.106;2023-02-28T11:15:30;5.50;;;5.00;;
3767;SDS011;1899;49.966;7.106;2023-02-28T11:18:00;5.93;;;5.22;;
3767;SDS011;1899;49.966;7.106;2023-02-28T11:20:26;5.43;;;4.93;;
3767;SDS011;1899;49.966;7.106;2023-02-28T11:22:53;4.90;;;4.40;;
3767;SDS011;1899;49.966;7.106;2023-02-28T11:25:24;4.82;;;4.32;;
3767;SDS011;1899;49.966;7.106;2023-02-28T11:27:57;8.48;;;6.35;;
3767;SDS011;1899;49.966;7.106;2023-02-28T11:30:26;5.32;;;4.03;;
3767;SDS011;1899;49.966;7.106;2023-02-28T11:32:52;4.83;;;4.33;;
3767;SDS011;1899;49.966;7.106;2023-02-28T11:35:18;5.97;;;4.60;;
3767;SDS011;1899;49.966;7.106;2023-02-28T11:37:47;4.70;;;4.30;;
3767;SDS011;1899;49.966;7.106;2023-02-28T11:40:13;6.37;;;4.70;;
3767;SDS011;1899;49.966;7.106;2023-02-28T11:48:25;4.80;;;4.20;;
3767;SDS011;1899;49.966;7.106;2023-02-28T11:51:05;4.72;;;4.22;;
3767;SDS011;1899;49.966;7.106;2023-02-28T11:56:18;5.15;;;4.60;;
3767;SDS011;1899;49.966;7.106;2023-02-28T12:06:43;4.90;;;4.10;;
3767;SDS011;1899;49.966;7.106;2023-02-28T12:09:13;4.40;;;4.00;;
3767;SDS011;1899;49.966;7.106;2023-02-28T12:14:28;4.40;;;4.00;;
3767;SDS011;1899;49.966;7.106;2023-02-28T12:17:00;5.22;;;4.30;;
3767;SDS011;1899;49.966;7.106;2023-02-28T12:19:30;5.55;;;4.65;;
3767;SDS011;1899;49.966;7.106;2023-02-28T12:22:12;5.67;;;4.50;;
3767;SDS011;1899;49.966;7.106;2023-02-28T12:27:15;5.93;;;4.80;;
3767;SDS011;1899;49.966;7.106;2023-02-28T12:29:49;4.80;;;4.15;;
3767;SDS011;1899;49.966;7.106;2023-02-28T12:32:20;4.63;;;4.00;;
3767;SDS011;1899;49.966;7.106;2023-02-28T12:34:54;4.50;;;4.00;;
3767;SDS011;1899;49.966;7.106;2023-02-28T12:37:22;4.25;;;3.85;;
3767;SDS011;1899;49.966;7.106;2023-02-28T12:39:51;4.30;;;3.90;;
3767;SDS011;1899;49.966;7.106;2023-02-28T12:47:14;4.50;;;4.10;;
3767;SDS011;1899;49.966;7.106;2023-02-28T12:52:08;5.25;;;4.10;;
3767;SDS011;1899;49.966;7.106;2023-02-28T13:00:04;4.30;;;3.90;;
3767;SDS011;1899;49.966;7.106;2023-02-28T13:09:57;3.65;;;3.35;;
3767;SDS011;1899;49.966;7.106;2023-02-28T13:12:23;4.20;;;3.80;;
3767;SDS011;1899;49.966;7.106;2023-02-28T13:14:49;4.50;;;3.70;;
3767;SDS011;1899;49.966;7.106;2023-02-28T13:17:18;4.30;;;3.90;;
3767;SDS011;1899;49.966;7.106;2023-02-28T13:20:13;4.50;;;4.03;;
3767;SDS011;1899;49.966;7.106;2023-02-28T13:25:03;4.50;;;4.10;;
3767;SDS011;1899;49.966;7.106;2023-02-28T13:27:51;4.57;;;4.18;;
3767;SDS011;1899;49.966;7.106;2023-02-28T13:35:43;4.20;;;3.90;;
3767;SDS011;1899;49.966;7.106;2023-02-28T13:38:16;4.10;;;3.70;;
3767;SDS011;1899;49.966;7.106;2023-02-28T13:40:42;4.38;;;3.97;;
3767;SDS011;1899;49.966;7.106;2023-02-28T13:43:08;5.20;;;4.07;;
3767;SDS011;1899;49.966;7.106;2023-02-28T13:45:33;4.90;;;4.35;;
3767;SDS011;1899;49.966;7.106;2023-02-28T13:48:19;4.60;;;4.13;;
3767;SDS011;1899;49.966;7.106;2023-02-28T13:50:44;4.80;;;4.30;;
3767;SDS011;1899;49.966;7.106;2023-02-28T13:58:27;5.20;;;4.70;;
3767;SDS011;1899;49.966;7.106;2023-02-28T14:08:50;4.70;;;4.30;;
3767;SDS011;1899;49.966;7.106;2023-02-28T14:11:25;5.10;;;4.60;;
3767;SDS011;1899;49.966;7.106;2023-02-28T14:13:51;5.50;;;4.80;;
3767;SDS011;1899;49.966;7.106;2023-02-28T14:16:17;4.88;;;4.47;;
3767;SDS011;1899;49.966;7.106;2023-02-28T14:18:50;5.30;;;4.80;;
3767;SDS011;1899;49.966;7.106;2023-02-28T14:21:31;4.70;;;4.30;;
3767;SDS011;1899;49.966;7.106;2023-02-28T14:29:01;4.70;;;4.30;;
3767;SDS011;1899;49.966;7.106;2023-02-28T14:31:36;4.83;;;4.43;;
3767;SDS011;1899;49.966;7.106;2023-02-28T14:36:47;4.87;;;4.37;;
3767;SDS011;1899;49.966;7.106;2023-02-28T14:39:17;6.80;;;4.80;;
3767;SDS011;1899;49.966;7.106;2023-02-28T14:41:44;6.90;;;6.30;;
3767;SDS011;1899;49.966;7.106;2023-02-28T14:44:20;5.25;;;4.75;;
3767;SDS011;1899;49.966;7.106;2023-02-28T14:46:47;5.00;;;4.60;;
3767;SDS011;1899;49.966;7.106;2023-02-28T14:51:50;5.28;;;4.80;;
3767;SDS011;1899;49.966;7.106;2023-02-28T14:54:26;5.70;;;5.10;;
3767;SDS011;1899;49.966;7.106;2023-02-28T14:56:51;5.40;;;4.90;;
3767;SDS011;1899;49.966;7.106;2023-02-28T14:59:22;8.20;;;5.70;;
3767;SDS011;1899;49.966;7.106;2023-02-28T15:01:48;6.28;;;5.68;;
3767;SDS011;1899;49.966;7.106;2023-02-28T15:04:18;6.80;;;5.50;;
3767;SDS011;1899;49.966;7.106;2023-02-28T15:06:46;6.20;;;5.60;;
3767;SDS011;1899;49.966;7.106;2023-02-28T15:09:15;7.20;;;5.30;;
3767;SDS011;1899;49.966;7.106;2023-02-28T15:11:41;6.78;;;5.53;;
3767;SDS011;1899;49.966;7.106;2023-02-28T15:14:13;5.45;;;4.95;;
3767;SDS011;1899;49.966;7.106;2023-02-28T15:16:40;5.90;;;5.10;;
3767;SDS011;1899;49.966;7.106;2023-02-28T15:19:07;5.78;;;5.18;;
3767;SDS011;1899;49.966;7.106;2023-02-28T15:21:41;5.97;;;5.38;;
3767;SDS011;1899;49.966;7.106;2023-02-28T15:26:49;5.70;;;5.10;;
3767;SDS011;1899;49.966;7.106;2023-02-28T15:29:16;5.85;;;5.25;;
3767;SDS011;1899;49.966;7.106;2023-02-28T15:31:55;5.57;;;5.07;;
3767;SDS011;1899;49.966;7.106;2023-02-28T15:34:34;5.73;;;5.17;;
3767;SDS011;1899;49.966;7.106;2023-02-28T15:37:00;6.18;;;5.57;;
3767;SDS011;1899;49.966;7.106;2023-02-28T15:39:27;5.93;;;5.10;;
3767;SDS011;1899;49.966;7.106;2023-02-28T15:42:09;6.10;;;5.20;;
3767;SDS011;1899;49.966;7.106;2023-02-28T15:44:34;5.50;;;5.00;;
3767;SDS011;1899;49.966;7.106;2023-02-28T15:47:16;6.40;;;5.47;;
3767;SDS011;1899;49.966;7.106;2023-02-28T15:49:49;6.90;;;6.20;;
3767;SDS011;1899;49.966;7.106;2023-02-28T15:52:17;6.00;;;5.40;;
3767;SDS011;1899;49.966;7.106;2023-02-28T15:54:43;6.53;;;5.70;;
3767;SDS011;1899;49.966;7.106;2023-02-28T15:57:28;6.03;;;5.13;;
3767;SDS011;1899;49.966;7.106;2023-02-28T15:59:55;6.22;;;5.43;;
3767;SDS011;1899;49.966;7.106;2023-02-28T16:02:22;6.10;;;5.50;;
3767;SDS011;1899;49.966;7.106;2023-02-28T16:04:54;6.68;;;5.70;;
3767;SDS011;1899;49.966;7.106;2023-02-28T16:07:20;6.37;;;5.40;;
3767;SDS011;1899;49.966;7.106;2023-02-28T16:09:45;5.70;;;5.20;;
3767;SDS011;1899;49.966;7.106;2023-02-28T16:12:12;5.40;;;4.90;;
3767;SDS011;1899;49.966;7.106;2023-02-28T16:14:38;5.75;;;5.25;;
3767;SDS011;1899;49.966;7.106;2023-02-28T16:17:05;5.87;;;5.20;;
3767;SDS011;1899;49.966;7.106;2023-02-28T16:19:31;6.70;;;5.45;;
3767;SDS011;1899;49.966;7.106;2023-02-28T16:21:56;6.28;;;5.40;;
3767;SDS011;1899;49.966;7.106;2023-02-28T16:24:22;6.35;;;5.07;;
3767;SDS011;1899;49.966;7.106;2023-02-28T16:26:48;6.20;;;5.60;;
3767;SDS011;1899;49.966;7.106;2023-02-28T16:29:33;6.57;;;5.70;;
3767;SDS011;1899;49.966;7.106;2023-02-28T16:31:59;6.20;;;5.60;;
3767;SDS011;1899;49.966;7.106;2023-02-28T16:34:25;7.10;;;5.90;;
3767;SDS011;1899;49.966;7.106;2023-02-28T16:36:50;6.70;;;6.00;;
3767;SDS011;1899;49.966;7.106;2023-02-28T16:39:16;6.78;;;5.80;;
3767;SDS011;1899;49.966;7.106;2023-02-28T16:41:42;5.82;;;5.32;;
3767;SDS011;1899;49.966;7.106;2023-02-28T16:44:10;7.35;;;5.70;;
3767;SDS011;1899;49.966;7.106;2023-02-28T16:46:36;6.95;;;6.10;;
3767;SDS011;1899;49.966;7.106;2023-02-28T16:49:02;6.28;;;5.68;;
3767;SDS011;1899;49.966;7.106;2023-02-28T16:51:27;6.47;;;5.80;;
3767;SDS011;1899;49.966;7.106;2023-02-28T16:53:52;6.77;;;5.70;;
3767;SDS011;1899;49.966;7.106;2023-02-28T16:56:18;6.40;;;5.73;;
3767;SDS011;1899;49.966;7.106;2023-02-28T16:58:44;7.57;;;6.20;;
3767;SDS011;1899;49.966;7.106;2023-02-28T17:01:10;6.30;;;5.70;;
3767;SDS011;1899;49.966;7.106;2023-02-28T17:03:35;9.53;;;5.23;;
3767;SDS011;1899;49.966;7.106;2023-02-28T17:06:01;6.60;;;5.90;;
3767;SDS011;1899;49.966;7.106;2023-02-28T17:08:27;5.93;;;5.32;;
3767;SDS011;1899;49.966;7.106;2023-02-28T17:10:54;6.95;;;6.00;;
3767;SDS011;1899;49.966;7.106;2023-02-28T17:13:19;7.27;;;5.63;;
3767;SDS011;1899;49.966;7.106;2023-02-28T17:15:44;6.50;;;5.60;;
3767;SDS011;1899;49.966;7.106;2023-02-28T17:18:14;6.60;;;5.90;;
3767;SDS011;1899;49.966;7.106;2023-02-28T17:20:40;7.03;;;5.80;;
3767;SDS011;1899;49.966;7.106;2023-02-28T17:23:07;7.15;;;5.75;;
3767;SDS011;1899;49.966;7.106;2023-02-28T17:25:32;6.73;;;5.97;;
3767;SDS011;1899;49.966;7.106;2023-02-28T17:27:57;6.50;;;5.90;;
3767;SDS011;1899;49.966;7.106;2023-02-28T17:30:24;6.90;;;5.87;;
3767;SDS011;1899;49.966;7.106;2023-02-28T17:32:49;8.05;;;6.60;;
3767;SDS011;1899;49.966;7.106;2023-02-28T17:35:15;6.60;;;5.90;;
3767;SDS011;1899;49.966;7.106;2023-02-28T17:37:41;6.40;;;5.80;;
3767;SDS011;1899;49.966;7.106;2023-02-28T17:40:06;8.20;;;5.77;;
3767;SDS011;1899;49.966;7.106;2023-02-28T17:42:36;7.82;;;6.50;;
3767;SDS011;1899;49.966;7.106;2023-02-28T17:45:01;8.10;;;6.53;;
3767;SDS011;1899;49.966;7.106;2023-02-28T17:47:26;8.25;;;6.28;;
3767;SDS011;1899;49.966;7.106;2023-02-28T17:49:52;7.20;;;6.03;;
3767;SDS011;1899;49.966;7.106;2023-02-28T17:52:17;7.53;;;5.87;;
3767;SDS011;1899;49.966;7.106;2023-02-28T17:54:42;6.77;;;5.70;;
3767;SDS011;1899;49.966;7.106;2023-02-28T17:57:11;6.82;;;6.13;;
3767;SDS011;1899;49.966;7.106;2023-02-28T17:59:37;6.90;;;6.07;;
3767;SDS011;1899;49.966;7.106;2023-02-28T18:02:02;6.80;;;6.10;;
3767;SDS011;1899;49.966;7.106;2023-02-28T18:04:28;7.70;;;5.70;;
3767;SDS011;1899;49.966;7.106;2023-02-28T18:06:54;7.93;;;6.05;;
3767;SDS011;1899;49.966;7.106;2023-02-28T18:09:21;8.05;;;6.38;;
3767;SDS011;1899;49.966;7.106;2023-02-28T18:11:47;7.30;;;5.70;;
3767;SDS011;1899;49.966;7.106;2023-02-28T18:14:15;7.65;;;6.38;;
3767;SDS011;1899;49.966;7.106;2023-02-28T18:16:41;7.20;;;6.03;;
3767;SDS011;1899;49.966;7.106;2023-02-28T18:19:06;7.28;;;6.30;;
3767;SDS011;1899;49.966;7.106;2023-02-28T18:21:33;7.60;;;5.90;;
3767;SDS011;1899;49.966;7.106;2023-02-28T18:23:59;6.50;;;5.90;;
3767;SDS011;1899;49.966;7.106;2023-02-28T18:26:24;7.43;;;6.00;;
3767;SDS011;1899;49.966;7.106;2023-02-28T18:28:49;7.63;;;5.80;;
3767;SDS011;1899;49.966;7.106;2023-02-28T18:31:16;8.03;;;6.23;;
3767;SDS011;1899;49.966;7.106;2023-02-28T18:33:43;8.02;;;6.35;;
3767;SDS011;1899;49.966;7.106;2023-02-28T18:36:09;7.20;;;6.50;;
3767;SDS011;1899;49.966;7.106;2023-02-28T18:38:34;6.63;;;6.03;;
3767;SDS011;1899;49.966;7.106;2023-02-28T18:41:02;7.32;;;6.57;;
3767;SDS011;1899;49.966;7.106;2023-02-28T18:43:28;7.80;;;6.30;;
3767;SDS011;1899;49.966;7.106;2023-02-28T18:45:53;7.28;;;6.40;;
3767;SDS011;1899;49.966;7.106;2023-02-28T18:48:19;7.00;;;6.10;;
3767;SDS011;1899;49.966;7.106;2023-02-28T18:50:45;7.90;;;6.38;;
3767;SDS011;1899;49.966;7.106;2023-02-28T18:53:10;7.67;;;6.10;;
3767;SDS011;1899;49.966;7.106;2023-02-28T18:55:36;8.20;;;6.43;;
3767;SDS011;1899;49.966;7.106;2023-02-28T18:58:01;7.90;;;6.40;;
3767;SDS011;1899;49.966;7.106;2023-02-28T19:00:27;7.15;;;6.00;;
3767;SDS011;1899;49.966;7.106;2023-02-28T19:02:52;6.55;;;5.85;;
3767;SDS011;1899;49.966;7.106;2023-02-28T19:05:18;7.53;;;6.15;;
3767;SDS011;1899;49.966;7.106;2023-02-28T19:07:43;8.15;;;6.40;;
3767;SDS011;1899;49.966;7.106;2023-02-28T19:10:09;8.93;;;6.83;;
3767;SDS011;1899;49.966;7.106;2023-02-28T19:12:35;8.43;;;6.80;;
3767;SDS011;1899;49.966;7.106;2023-02-28T19:15:01;7.82;;;6.70;;
3767;SDS011;1899;49.966;7.106;2023-02-28T19:17:27;7.75;;;6.15;;
3767;SDS011;1899;49.966;7.106;2023-02-28T19:19:52;8.90;;;6.53;;
3767;SDS011;1899;49.966;7.106;2023-02-28T19:22:17;8.25;;;6.70;;
3767;SDS011;1899;49.966;7.106;2023-02-28T19:24:42;7.65;;;6.85;;
3767;SDS011;1899;49.966;7.106;2023-02-28T19:27:08;9.23;;;7.05;;
3767;SDS011;1899;49.966;7.106;2023-02-28T19:29:33;8.03;;;7.23;;
3767;SDS011;1899;49.966;7.106;2023-02-28T19:31:58;7.17;;;6.33;;
3767;SDS011;1899;49.966;7.106;2023-02-28T19:34:23;7.40;;;6.57;;
3767;SDS011;1899;49.966;7.106;2023-02-28T19:36:49;7.57;;;6.87;;
3767;SDS011;1899;49.966;7.106;2023-02-28T19:39:15;6.97;;;6.27;;
3767;SDS011;1899;49.966;7.106;2023-02-28T19:41:40;9.30;;;7.03;;
3767;SDS011;1899;49.966;7.106;2023-02-28T19:44:05;7.83;;;7.03;;
3767;SDS011;1899;49.966;7.106;2023-02-28T19:46:30;7.80;;;7.00;;
3767;SDS011;1899;49.966;7.106;2023-02-28T19:48:56;6.80;;;6.10;;
3767;SDS011;1899;49.966;7.106;2023-02-28T19:51:21;6.87;;;6.17;;
3767;SDS011;1899;49.966;7.106;2023-02-28T19:53:47;6.90;;;6.07;;
3767;SDS011;1899;49.966;7.106;2023-02-28T19:56:12;8.77;;;7.13;;
3767;SDS011;1899;49.966;7.106;2023-02-28T19:58:38;8.13;;;7.20;;
3767;SDS011;1899;49.966;7.106;2023-02-28T20:03:32;9.65;;;7.15;;
3767;SDS011;1899;49.966;7.106;2023-02-28T20:05:58;8.00;;;6.82;;
3767;SDS011;1899;49.966;7.106;2023-02-28T20:08:23;8.40;;;7.17;;
3767;SDS011;1899;49.966;7.106;2023-02-28T20:10:48;7.70;;;6.90;;
3767;SDS011;1899;49.966;7.106;2023-02-28T20:13:14;7.90;;;7.10;;
3767;SDS011;1899;49.966;7.106;2023-02-28T20:15:39;9.23;;;7.60;;
3767;SDS011;1899;49.966;7.106;2023-02-28T20:18:04;8.60;;;7.50;;
3767;SDS011;1899;49.966;7.106;2023-02-28T20:20:30;8.20;;;7.30;;
3767;SDS011;1899;49.966;7.106;2023-02-28T20:22:55;9.30;;;7.30;;
3767;SDS011;1899;49.966;7.106;2023-02-28T20:25:20;9.63;;;7.80;;
3767;SDS011;1899;49.966;7.106;2023-02-28T20:27:45;8.63;;;7.00;;
3767;SDS011;1899;49.966;7.106;2023-02-28T20:30:14;8.40;;;7.27;;
3767;SDS011;1899;49.966;7.106;2023-02-28T20:32:39;9.00;;;7.45;;
3767;SDS011;1899;49.966;7.106;2023-02-28T20:35:05;10.60;;;8.00;;
3767;SDS011;1899;49.966;7.106;2023-02-28T20:37:30;9.30;;;7.70;;
3767;SDS011;1899;49.966;7.106;2023-02-28T20:39:56;9.53;;;7.93;;
3767;SDS011;1899;49.966;7.106;2023-02-28T20:42:21;11.53;;;7.80;;
3767;SDS011;1899;49.966;7.106;2023-02-28T20:44:46;9.43;;;7.60;;
3767;SDS011;1899;49.966;7.106;2023-02-28T20:47:12;8.80;;;7.83;;
3767;SDS011;1899;49.966;7.106;2023-02-28T20:49:37;10.43;;;7.60;;
3767;SDS011;1899;49.966;7.106;2023-02-28T20:52:02;10.20;;;7.77;;
3767;SDS011;1899;49.966;7.106;2023-02-28T20:54:28;9.85;;;7.68;;
3767;SDS011;1899;49.966;7.106;2023-02-28T20:56:54;8.67;;;7.53;;
3767;SDS011;1899;49.966;7.106;2023-02-28T20:59:19;9.63;;;7.53;;
